KSNK/SNK METAR and TAF weather

Enter ICAO airport designator
Station Type Date Time Source
KSNK METAR 2019/06/17 15:15 UTC NOAA

KSNK 171515Z AUTO 13005KT 10SM SCT017 23/18 A3003 RMK AO2 T02280184


Station Type Date Time Source
KSNK Decoded METAR 2019/06/17 15:15 UTC NOAA

Snyder, Winston Field Airport, TX, United States (KSNK) 32-41-36N 100-57-01W
Jun 17, 2019 - 11:15 AM EDT / 2019.06.17 1515 UTC
Wind: from the SE (130 degrees) at 6 MPH (5 KT):0
Visibility: 10 mile(s):0
Sky conditions: partly cloudy
Temperature: 73.0 F (22.8 C)
Dew Point: 65.1 F (18.4 C)
Relative Humidity: 76%
Pressure (altimeter): 30.03 in. Hg (1016 hPa)
ob: KSNK 171515Z AUTO 13005KT 10SM SCT017 23/18 A3003 RMK AO2 T02280184
cycle: 15

Station Type Date Time Source
KSNK TAF UTC NOAA

Error!

Example: see airport list